createdAt,value
2022-10-11T00:02:07.180Z,15.30
2022-10-11T00:04:34.139Z,15.30
2022-10-11T00:07:01.004Z,15.30
2022-10-11T00:09:27.949Z,15.30
2022-10-11T00:11:58.110Z,15.30
2022-10-11T00:14:26.003Z,15.30
2022-10-11T00:16:53.397Z,15.30
2022-10-11T00:19:20.511Z,15.20
2022-10-11T00:21:47.748Z,15.20
2022-10-11T00:24:16.111Z,15.20
2022-10-11T00:26:46.855Z,15.20
2022-10-11T00:29:14.411Z,15.20
2022-10-11T00:31:41.232Z,15.10
2022-10-11T00:34:08.740Z,15.10
2022-10-11T00:36:35.802Z,15.10
2022-10-11T00:39:03.268Z,15.10
2022-10-11T00:41:30.379Z,15.00
2022-10-11T00:44:20.505Z,15.10
2022-10-11T00:47:03.811Z,15.10
2022-10-11T00:49:43.963Z,15.10
2022-10-11T00:52:33.855Z,15.00
2022-10-11T00:55:11.043Z,15.10
2022-10-11T00:57:41.990Z,15.10
2022-10-11T01:00:12.020Z,15.10
2022-10-11T01:02:40.161Z,15.00
2022-10-11T01:05:28.040Z,15.00
2022-10-11T01:07:56.159Z,15.00
2022-10-11T01:10:23.016Z,15.00
2022-10-11T01:12:52.757Z,15.00
2022-10-11T01:15:23.355Z,15.10
2022-10-11T01:17:59.553Z,15.10
2022-10-11T01:20:49.983Z,15.10
2022-10-11T01:23:37.857Z,15.10
2022-10-11T01:26:49.005Z,15.10
2022-10-11T01:29:44.340Z,15.10
2022-10-11T01:32:34.452Z,15.00
2022-10-11T01:35:30.023Z,15.00
2022-10-11T01:38:34.120Z,15.00
2022-10-11T01:41:08.952Z,15.00
2022-10-11T01:43:37.393Z,15.00
2022-10-11T01:46:05.537Z,15.00
2022-10-11T01:48:32.632Z,15.10
2022-10-11T01:51:02.068Z,15.00
2022-10-11T01:53:56.959Z,15.10
2022-10-11T01:56:50.935Z,15.10
2022-10-11T01:59:31.984Z,15.10
2022-10-11T02:02:26.855Z,15.10
2022-10-11T02:05:02.985Z,15.10
2022-10-11T02:07:42.819Z,15.10
2022-10-11T02:10:25.312Z,15.00
2022-10-11T02:13:02.618Z,15.00
2022-10-11T02:15:32.126Z,15.00
2022-10-11T02:18:02.448Z,15.00
2022-10-11T02:20:31.949Z,15.00
2022-10-11T02:23:15.047Z,15.00
2022-10-11T02:25:44.336Z,14.90
2022-10-11T02:28:20.371Z,14.90
2022-10-11T02:30:49.483Z,14.90
2022-10-11T02:33:21.574Z,14.90
2022-10-11T02:35:55.074Z,14.90
2022-10-11T02:38:36.601Z,14.90
2022-10-11T02:41:15.917Z,14.90
2022-10-11T02:43:48.337Z,14.90
2022-10-11T02:46:17.719Z,14.90
2022-10-11T02:48:44.558Z,14.90
2022-10-11T02:51:14.052Z,14.90
2022-10-11T02:53:40.800Z,15.00
2022-10-11T02:56:08.227Z,15.00
2022-10-11T02:58:35.495Z,14.90
2022-10-11T03:01:02.270Z,14.90
2022-10-11T03:03:29.023Z,14.90
2022-10-11T03:06:00.601Z,14.90
2022-10-11T03:08:27.533Z,14.90
2022-10-11T03:10:54.414Z,14.90
2022-10-11T03:13:21.311Z,14.90
2022-10-11T03:16:01.916Z,14.80
2022-10-11T03:18:29.930Z,14.80
2022-10-11T03:20:56.744Z,14.80
2022-10-11T03:23:23.547Z,14.80
2022-10-11T03:25:51.947Z,14.80
2022-10-11T03:28:19.137Z,14.80
2022-10-11T03:30:49.641Z,14.80
2022-10-11T03:33:17.178Z,14.80
2022-10-11T03:35:45.627Z,14.80
2022-10-11T03:38:18.763Z,14.80
2022-10-11T03:40:45.597Z,14.80
2022-10-11T03:43:12.470Z,14.80
2022-10-11T03:45:39.512Z,14.80
2022-10-11T03:48:06.575Z,14.80
2022-10-11T03:50:33.392Z,14.70
2022-10-11T03:53:00.261Z,14.80
2022-10-11T03:55:27.004Z,14.70
2022-10-11T03:57:53.844Z,14.70
2022-10-11T04:00:20.782Z,14.70
2022-10-11T04:02:47.569Z,14.70
2022-10-11T04:05:14.612Z,14.60
2022-10-11T04:07:41.471Z,14.70
2022-10-11T04:10:08.604Z,14.70
2022-10-11T04:12:37.302Z,14.70
2022-10-11T04:15:05.147Z,14.60
2022-10-11T04:17:31.930Z,14.60
2022-10-11T04:19:58.650Z,14.60
2022-10-11T04:22:25.397Z,14.60
2022-10-11T04:24:52.216Z,14.60
2022-10-11T04:27:18.972Z,14.60
2022-10-11T04:29:45.681Z,14.50
2022-10-11T04:32:12.439Z,14.60
2022-10-11T04:34:39.250Z,14.50
2022-10-11T04:37:06.068Z,14.50
2022-10-11T04:39:32.788Z,14.50
2022-10-11T04:41:59.577Z,14.40
2022-10-11T04:44:26.375Z,14.40
2022-10-11T04:46:53.147Z,14.40
2022-10-11T04:49:20.145Z,14.50
2022-10-11T04:51:46.959Z,14.50
2022-10-11T04:54:13.883Z,14.50
2022-10-11T04:56:41.071Z,14.50
2022-10-11T04:59:07.827Z,14.40
2022-10-11T05:01:35.310Z,14.50
2022-10-11T05:04:02.177Z,14.50
2022-10-11T05:06:28.966Z,14.50
2022-10-11T05:08:55.711Z,14.50
2022-10-11T05:11:22.479Z,14.50
2022-10-11T05:13:49.291Z,14.50
2022-10-11T05:16:17.685Z,14.50
2022-10-11T05:18:44.960Z,14.50
2022-10-11T05:21:20.832Z,14.50
2022-10-11T05:23:49.084Z,14.40
2022-10-11T05:26:16.744Z,14.50
2022-10-11T05:28:44.225Z,14.50
2022-10-11T05:31:11.300Z,14.40
2022-10-11T05:33:38.315Z,14.40
2022-10-11T05:36:06.514Z,14.40
2022-10-11T05:38:34.082Z,14.40
2022-10-11T05:41:01.993Z,14.40
2022-10-11T05:43:29.710Z,14.40
2022-10-11T05:45:57.372Z,14.40
2022-10-11T05:48:26.150Z,14.40
2022-10-11T05:50:53.259Z,14.40
2022-10-11T05:53:20.053Z,14.40
2022-10-11T05:55:46.784Z,14.40
2022-10-11T05:58:14.961Z,14.40
2022-10-11T06:00:41.719Z,14.40
2022-10-11T06:03:11.268Z,14.40
2022-10-11T06:05:38.613Z,14.40
2022-10-11T06:08:06.580Z,14.40
2022-10-11T06:10:33.776Z,14.40
2022-10-11T06:13:00.533Z,14.50
2022-10-11T06:15:27.371Z,14.50
2022-10-11T06:17:54.186Z,14.50
2022-10-11T06:20:20.891Z,14.40
2022-10-11T06:22:47.665Z,14.40
2022-10-11T06:25:14.414Z,14.40
2022-10-11T06:27:41.171Z,14.40
2022-10-11T06:30:08.345Z,14.40
2022-10-11T06:32:35.060Z,14.30
2022-10-11T06:35:03.403Z,14.40
2022-10-11T06:37:30.362Z,14.40
2022-10-11T06:39:57.095Z,14.40
2022-10-11T06:42:23.825Z,14.40
2022-10-11T06:44:50.566Z,14.40
2022-10-11T06:47:17.317Z,14.40
2022-10-11T06:49:44.076Z,14.30
2022-10-11T06:52:10.924Z,14.40
2022-10-11T06:54:41.208Z,14.30
2022-10-11T06:57:10.728Z,14.40
2022-10-11T06:59:37.454Z,14.30
2022-10-11T07:02:04.179Z,14.30
2022-10-11T07:04:31.007Z,14.30
2022-10-11T07:06:57.745Z,14.30
2022-10-11T07:09:24.509Z,14.30
2022-10-11T07:11:51.295Z,14.30
2022-10-11T07:14:18.010Z,14.30
2022-10-11T07:16:44.772Z,14.30
2022-10-11T07:19:11.678Z,14.30
2022-10-11T07:21:38.595Z,14.30
2022-10-11T07:24:05.828Z,14.30
2022-10-11T07:26:38.487Z,14.30
2022-10-11T07:29:39.261Z,14.30
2022-10-11T07:32:06.286Z,14.30
2022-10-11T07:34:33.389Z,14.30
2022-10-11T07:37:00.162Z,14.30
2022-10-11T07:39:26.918Z,14.30
2022-10-11T07:41:53.664Z,14.30
2022-10-11T07:44:20.455Z,14.30
2022-10-11T07:46:47.194Z,14.30
2022-10-11T07:49:14.216Z,14.30
2022-10-11T07:51:40.930Z,14.30
2022-10-11T07:54:08.090Z,14.40
2022-10-11T07:56:35.167Z,14.40
2022-10-11T07:59:03.568Z,14.40
2022-10-11T08:01:31.987Z,14.40
2022-10-11T08:03:59.467Z,14.40
2022-10-11T08:06:31.564Z,14.50
2022-10-11T08:09:00.538Z,14.50
2022-10-11T08:11:32.768Z,14.50
2022-10-11T08:14:01.119Z,14.60
2022-10-11T08:16:28.243Z,14.60
2022-10-11T08:18:56.995Z,14.60
2022-10-11T08:21:24.508Z,14.60
2022-10-11T08:23:51.250Z,14.70
2022-10-11T08:26:18.632Z,14.70
2022-10-11T08:28:45.584Z,14.70
2022-10-11T08:31:16.627Z,14.80
2022-10-11T08:33:43.948Z,14.80
2022-10-11T08:36:11.763Z,14.90
2022-10-11T08:38:39.087Z,14.90
2022-10-11T08:41:43.844Z,14.90
2022-10-11T08:45:05.523Z,14.90
2022-10-11T08:47:28.249Z,14.90
2022-10-11T08:49:55.443Z,14.90
2022-10-11T08:52:28.679Z,14.90
2022-10-11T08:54:57.704Z,14.90
2022-10-11T08:57:27.302Z,14.90
2022-10-11T08:59:58.435Z,14.90
2022-10-11T09:03:08.051Z,14.90
2022-10-11T09:05:39.503Z,14.90
2022-10-11T09:08:35.483Z,14.80
2022-10-11T09:11:08.027Z,14.80
2022-10-11T09:14:22.435Z,14.80
2022-10-11T09:16:57.762Z,14.80
2022-10-11T09:20:15.164Z,14.80
2022-10-11T09:22:43.038Z,14.80
2022-10-11T09:25:29.134Z,14.80
2022-10-11T09:28:17.729Z,14.80
2022-10-11T09:30:50.514Z,14.80
2022-10-11T09:33:35.382Z,14.80
2022-10-11T09:36:12.116Z,14.80
2022-10-11T09:39:16.093Z,14.80
2022-10-11T09:41:46.908Z,14.70
2022-10-11T09:44:24.256Z,14.70
2022-10-11T09:46:54.274Z,14.70
2022-10-11T09:49:25.385Z,14.70
2022-10-11T09:51:55.750Z,14.70
2022-10-11T09:54:36.450Z,14.70
2022-10-11T09:57:03.260Z,14.70
2022-10-11T09:59:36.096Z,14.70
2022-10-11T10:02:14.931Z,14.70
2022-10-11T10:05:08.079Z,14.70
2022-10-11T10:07:37.712Z,14.70
2022-10-11T10:10:28.637Z,14.70
2022-10-11T10:12:59.095Z,14.80
2022-10-11T10:15:36.022Z,14.70
2022-10-11T10:18:05.909Z,14.70
2022-10-11T10:20:35.367Z,14.80
2022-10-11T10:23:19.296Z,14.80
2022-10-11T10:25:51.067Z,14.80
2022-10-11T10:28:20.287Z,14.80
2022-10-11T10:30:54.559Z,14.80
2022-10-11T10:33:29.881Z,14.80
2022-10-11T10:36:12.363Z,14.80
2022-10-11T10:38:51.901Z,14.90
2022-10-11T10:41:19.407Z,14.90
2022-10-11T10:43:55.791Z,15.00
2022-10-11T10:46:28.559Z,15.00
2022-10-11T10:49:28.770Z,15.00
2022-10-11T10:52:12.344Z,15.00
2022-10-11T10:54:55.934Z,15.00
2022-10-11T10:57:36.375Z,15.00
2022-10-11T11:00:17.297Z,15.00
2022-10-11T11:03:03.851Z,15.00
2022-10-11T11:05:58.102Z,15.00
2022-10-11T11:08:43.771Z,15.00
2022-10-11T11:11:40.628Z,15.00
2022-10-11T11:14:38.058Z,15.10
2022-10-11T11:17:29.514Z,15.10
2022-10-11T11:20:22.064Z,15.10
2022-10-11T11:23:11.426Z,15.10
2022-10-11T11:25:45.147Z,15.20
2022-10-11T11:28:36.955Z,15.20
2022-10-11T11:31:30.938Z,15.30
2022-10-11T11:34:21.882Z,15.30
2022-10-11T11:37:02.403Z,15.30
2022-10-11T11:39:43.872Z,15.30
2022-10-11T11:42:34.663Z,15.30
2022-10-11T11:45:13.124Z,15.30
2022-10-11T11:47:45.791Z,15.30
2022-10-11T11:50:23.942Z,15.30
2022-10-11T11:53:04.225Z,15.30
2022-10-11T11:55:35.570Z,15.30
2022-10-11T11:58:17.253Z,15.30
2022-10-11T12:00:53.792Z,15.30
2022-10-11T12:03:41.717Z,15.30
2022-10-11T12:06:31.572Z,15.30
2022-10-11T12:09:09.278Z,15.30
2022-10-11T12:12:00.765Z,15.30
2022-10-11T12:14:33.577Z,15.30
2022-10-11T12:17:24.185Z,15.30
2022-10-11T12:20:08.964Z,15.30
2022-10-11T12:22:49.341Z,15.30
2022-10-11T12:25:18.560Z,15.30
2022-10-11T12:27:49.528Z,15.30
2022-10-11T12:30:44.394Z,15.40
2022-10-11T12:33:26.125Z,15.40
2022-10-11T12:35:52.930Z,15.40
2022-10-11T12:38:42.165Z,15.30
2022-10-11T12:41:08.895Z,15.40
2022-10-11T12:43:36.905Z,15.40
2022-10-11T12:46:28.900Z,15.40
2022-10-11T12:49:14.088Z,15.40
2022-10-11T12:52:03.948Z,15.40
2022-10-11T12:54:50.179Z,15.40
2022-10-11T12:57:42.534Z,15.40
2022-10-11T13:00:29.110Z,15.40
2022-10-11T13:02:57.731Z,15.50
2022-10-11T13:05:45.297Z,15.50
2022-10-11T13:08:29.087Z,15.50
2022-10-11T13:11:01.094Z,15.50
2022-10-11T13:13:58.528Z,15.60
2022-10-11T13:16:42.331Z,15.50
2022-10-11T13:19:13.290Z,15.50
2022-10-11T13:21:40.852Z,15.60
2022-10-11T13:24:17.561Z,15.60
2022-10-11T13:26:46.189Z,15.60
2022-10-11T13:29:18.401Z,15.60
2022-10-11T13:31:47.285Z,15.60
2022-10-11T13:34:16.732Z,15.50
2022-10-11T13:36:45.502Z,15.60
2022-10-11T13:39:38.086Z,15.60
2022-10-11T13:42:12.111Z,15.60
2022-10-11T13:44:40.264Z,15.60
2022-10-11T13:47:09.391Z,15.70
2022-10-11T13:49:37.795Z,15.70
2022-10-11T13:52:19.252Z,15.70
2022-10-11T13:55:04.291Z,15.70
2022-10-11T13:57:38.810Z,15.70
2022-10-11T14:00:20.468Z,15.70
2022-10-11T14:02:54.541Z,15.60
2022-10-11T14:05:25.719Z,15.60
2022-10-11T14:07:52.616Z,15.60
2022-10-11T14:10:21.002Z,15.60
2022-10-11T14:12:59.326Z,15.60
2022-10-11T14:15:34.503Z,15.60
2022-10-11T14:18:22.526Z,15.60
2022-10-11T14:20:49.371Z,15.60
2022-10-11T14:23:16.098Z,15.60
2022-10-11T14:25:42.993Z,15.60
2022-10-11T14:28:12.807Z,15.60
2022-10-11T14:30:41.427Z,15.60
2022-10-11T14:33:08.269Z,15.60
2022-10-11T14:35:36.818Z,15.50
2022-10-11T14:38:03.574Z,15.50
2022-10-11T14:40:31.681Z,15.50
2022-10-11T14:42:58.696Z,15.40
2022-10-11T14:45:25.823Z,15.40
2022-10-11T14:47:52.586Z,15.40
2022-10-11T14:50:39.189Z,15.40
2022-10-11T14:53:07.942Z,15.40
2022-10-11T14:55:38.877Z,15.40
2022-10-11T14:58:06.929Z,15.50
2022-10-11T15:00:35.202Z,15.40
2022-10-11T15:03:02.368Z,15.50
2022-10-11T15:05:33.944Z,15.50
2022-10-11T15:08:02.103Z,15.50
2022-10-11T15:10:30.519Z,15.50
2022-10-11T15:12:57.863Z,15.50
2022-10-11T15:15:26.902Z,15.50
2022-10-11T15:17:56.653Z,15.50
2022-10-11T15:20:33.255Z,15.50
2022-10-11T15:23:00.959Z,15.50
2022-10-11T15:25:29.053Z,15.50
2022-10-11T15:27:56.702Z,15.50
2022-10-11T15:30:37.133Z,15.50
2022-10-11T15:33:07.009Z,15.50
2022-10-11T15:35:33.753Z,15.60
2022-10-11T15:38:00.589Z,15.50
2022-10-11T15:40:33.428Z,15.50
2022-10-11T15:43:00.580Z,15.50
2022-10-11T15:45:28.690Z,15.50
2022-10-11T15:47:55.771Z,15.50
2022-10-11T15:50:34.945Z,15.50
2022-10-11T15:53:08.137Z,15.50
2022-10-11T15:55:35.958Z,15.50
2022-10-11T15:58:02.718Z,15.40
2022-10-11T16:00:30.169Z,15.40
2022-10-11T16:02:58.274Z,15.40
2022-10-11T16:05:27.231Z,15.40
2022-10-11T16:07:54.436Z,15.30
2022-10-11T16:10:21.616Z,15.30
2022-10-11T16:12:48.461Z,15.20
2022-10-11T16:15:16.262Z,15.10
2022-10-11T16:17:43.105Z,15.10
2022-10-11T16:20:09.955Z,15.00
2022-10-11T16:22:36.924Z,15.00
2022-10-11T16:25:04.836Z,15.00
2022-10-11T16:27:32.222Z,14.90
2022-10-11T16:29:59.836Z,14.90
2022-10-11T16:32:27.386Z,14.90
2022-10-11T16:34:54.181Z,14.90
2022-10-11T16:37:20.943Z,14.90
2022-10-11T16:39:47.737Z,14.90
2022-10-11T16:42:14.484Z,14.80
2022-10-11T16:44:41.224Z,14.80
2022-10-11T16:47:08.104Z,14.80
2022-10-11T16:49:35.226Z,14.80
2022-10-11T16:52:04.690Z,14.80
2022-10-11T16:54:31.920Z,14.70
2022-10-11T16:56:59.163Z,14.70
2022-10-11T16:59:26.015Z,14.70
2022-10-11T17:01:52.793Z,14.60
2022-10-11T17:04:19.555Z,14.60
2022-10-11T17:06:46.365Z,14.60
2022-10-11T17:09:13.307Z,14.50
2022-10-11T17:11:40.766Z,14.50
2022-10-11T17:14:07.698Z,14.50
2022-10-11T17:16:35.249Z,14.50
2022-10-11T17:19:02.655Z,14.50
2022-10-11T17:21:29.734Z,14.50
2022-10-11T17:23:56.521Z,14.50
2022-10-11T17:26:26.266Z,14.50
2022-10-11T17:28:58.079Z,14.50
2022-10-11T17:31:25.881Z,14.50
2022-10-11T17:33:54.356Z,14.50
2022-10-11T17:36:23.646Z,14.50
2022-10-11T17:38:51.615Z,14.50
2022-10-11T17:41:18.930Z,14.50
2022-10-11T17:43:46.526Z,14.50
2022-10-11T17:46:15.593Z,14.50
2022-10-11T17:48:42.661Z,14.50
2022-10-11T17:51:11.679Z,14.50
2022-10-11T17:53:38.950Z,14.40
2022-10-11T17:56:11.927Z,14.40
2022-10-11T17:58:39.307Z,14.40
2022-10-11T18:01:13.009Z,14.40
2022-10-11T18:03:40.080Z,14.40
2022-10-11T18:06:08.719Z,14.40
2022-10-11T18:08:40.387Z,14.40
2022-10-11T18:11:13.366Z,14.40
2022-10-11T18:13:43.211Z,14.40
2022-10-11T18:16:10.866Z,14.40
2022-10-11T18:18:39.004Z,14.40
2022-10-11T18:21:05.950Z,14.40
2022-10-11T18:23:32.791Z,14.40
2022-10-11T18:25:59.557Z,14.40
2022-10-11T18:28:26.296Z,14.40
2022-10-11T18:30:53.196Z,14.40
2022-10-11T18:33:19.974Z,14.40
2022-10-11T18:35:46.722Z,14.30
2022-10-11T18:38:13.462Z,14.40
2022-10-11T18:40:43.521Z,14.40
2022-10-11T18:43:13.706Z,14.30
2022-10-11T18:45:40.577Z,14.30
2022-10-11T18:48:08.682Z,14.40
2022-10-11T18:50:35.551Z,14.30
2022-10-11T18:55:29.886Z,14.30
2022-10-11T18:57:56.777Z,14.30
2022-10-11T19:00:40.065Z,14.30
2022-10-11T19:03:07.275Z,14.30
2022-10-11T19:05:34.000Z,14.30
2022-10-11T19:08:00.801Z,14.30
2022-10-11T19:10:28.079Z,14.30
2022-10-11T19:12:54.759Z,14.30
2022-10-11T19:15:25.250Z,14.30
2022-10-11T19:17:54.663Z,14.30
2022-10-11T19:20:21.427Z,14.30
2022-10-11T19:22:48.154Z,14.30
2022-10-11T19:25:14.895Z,14.30
2022-10-11T19:27:41.609Z,14.30
2022-10-11T19:30:08.876Z,14.40
2022-10-11T19:32:35.582Z,14.30
2022-10-11T19:35:02.305Z,14.40
2022-10-11T19:37:29.150Z,14.40
2022-10-11T19:39:56.068Z,14.40
2022-10-11T19:42:22.809Z,14.40
2022-10-11T19:44:49.620Z,14.40
2022-10-11T19:47:16.383Z,14.40
2022-10-11T19:49:43.089Z,14.40
2022-10-11T19:52:10.019Z,14.30
2022-10-11T19:54:36.736Z,14.30
2022-10-11T19:57:03.566Z,14.30
2022-10-11T19:59:30.409Z,14.30
2022-10-11T20:01:57.143Z,14.40
2022-10-11T20:07:11.008Z,14.30
2022-10-11T20:09:37.795Z,14.40
2022-10-11T20:12:04.790Z,14.30
2022-10-11T20:14:31.640Z,14.30
2022-10-11T20:16:58.403Z,14.30
2022-10-11T20:19:30.713Z,14.30
2022-10-11T20:21:57.972Z,14.30
2022-10-11T20:24:27.253Z,14.30
2022-10-11T20:26:54.116Z,14.30
2022-10-11T20:29:20.910Z,14.30
2022-10-11T20:31:47.609Z,14.30
2022-10-11T20:34:14.686Z,14.30
2022-10-11T20:36:42.972Z,14.30
2022-10-11T20:39:12.856Z,14.30
2022-10-11T20:41:42.878Z,14.30
2022-10-11T20:44:11.158Z,14.30
2022-10-11T20:46:38.963Z,14.30
2022-10-11T20:49:08.634Z,14.30
2022-10-11T20:51:38.146Z,14.30
2022-10-11T20:54:05.511Z,14.30
2022-10-11T20:56:32.534Z,14.30
2022-10-11T20:58:59.544Z,14.30
2022-10-11T21:01:32.380Z,14.30
2022-10-11T21:04:01.175Z,14.30
2022-10-11T21:06:28.925Z,14.30
2022-10-11T21:08:56.571Z,14.40
2022-10-11T21:11:31.188Z,14.40
2022-10-11T21:14:00.165Z,14.30
2022-10-11T21:16:27.925Z,14.40
2022-10-11T21:18:56.347Z,14.40
2022-10-11T21:21:24.087Z,14.30
2022-10-11T21:23:58.761Z,14.40
2022-10-11T21:26:27.338Z,14.40
2022-10-11T21:28:54.481Z,14.40
2022-10-11T21:31:22.406Z,14.30
2022-10-11T21:33:49.483Z,14.40
2022-10-11T21:36:19.074Z,14.30
2022-10-11T21:38:46.364Z,14.30
2022-10-11T21:41:16.182Z,14.40
2022-10-11T21:43:43.450Z,14.30
2022-10-11T21:46:32.522Z,14.40
2022-10-11T21:49:08.756Z,14.40
2022-10-11T21:51:35.562Z,14.30
2022-10-11T21:54:02.332Z,14.30
2022-10-11T21:56:30.029Z,14.30
2022-10-11T21:58:57.336Z,14.30
2022-10-11T22:01:24.324Z,14.30
2022-10-11T22:03:53.426Z,14.30
2022-10-11T22:06:20.830Z,14.30
2022-10-11T22:08:48.887Z,14.30
2022-10-11T22:11:16.092Z,14.30
2022-10-11T22:13:42.939Z,14.30
2022-10-11T22:16:11.767Z,14.30
2022-10-11T22:18:39.406Z,14.30
2022-10-11T22:21:14.155Z,14.30
2022-10-11T22:23:42.093Z,14.30
2022-10-11T22:26:13.009Z,14.30
2022-10-11T22:28:40.291Z,14.30
2022-10-11T22:31:08.866Z,14.30
2022-10-11T22:33:35.859Z,14.30
2022-10-11T22:36:08.572Z,14.20
2022-10-11T22:38:36.648Z,14.20
2022-10-11T22:41:03.414Z,14.30
2022-10-11T22:43:30.195Z,14.20
2022-10-11T22:45:56.998Z,14.30
2022-10-11T22:48:23.736Z,14.30
2022-10-11T22:50:51.347Z,14.20
2022-10-11T22:53:18.344Z,14.20
2022-10-11T22:55:45.118Z,14.20
2022-10-11T22:58:11.902Z,14.30
2022-10-11T23:00:38.767Z,14.20
2022-10-11T23:03:07.298Z,14.20
2022-10-11T23:05:35.120Z,14.20
2022-10-11T23:08:01.890Z,14.20
2022-10-11T23:10:28.954Z,14.20
2022-10-11T23:12:55.667Z,14.20
2022-10-11T23:15:22.534Z,14.20
2022-10-11T23:17:49.321Z,14.20
2022-10-11T23:20:16.195Z,14.20
2022-10-11T23:22:42.923Z,14.20
2022-10-11T23:25:10.061Z,14.20
2022-10-11T23:27:37.050Z,14.20
2022-10-11T23:30:04.751Z,14.10
2022-10-11T23:32:31.466Z,14.20
2022-10-11T23:34:58.382Z,14.20
2022-10-11T23:37:25.203Z,14.10
2022-10-11T23:39:51.983Z,14.20
2022-10-11T23:42:18.699Z,14.10
2022-10-11T23:44:45.751Z,14.10
2022-10-11T23:47:12.562Z,14.10
2022-10-11T23:49:39.289Z,14.10
2022-10-11T23:52:06.027Z,14.10
2022-10-11T23:54:32.764Z,14.10
2022-10-11T23:56:59.521Z,14.10
2022-10-11T23:59:26.312Z,14.10
